Time;durP1;ratioP1;P1;durP2;ratioP2;P2;SDS_P1;SDS_P2;PMS_P1;PMS_P2;Temp;Humidity;BMP_temperature;BMP_pressure;BME280_temperature;BME280_humidity;BME280_pressure;Samples;Min_cycle;Max_cycle;Signal;HPM_P1;HPM_P2
2022/04/15 00:00:28;;;;;;;13.20;7.40;;;18.10;40.50;;;;;;5080978;28;20179;-71
2022/04/15 00:02:54;;;;;;;9.37;6.80;;;17.80;41.90;;;;;;5091776;28;20450;-71
2022/04/15 00:05:40;;;;;;;12.93;7.30;;;17.80;41.20;;;;;;5083399;28;20764;-71
2022/04/15 00:08:06;;;;;;;21.00;6.97;;;17.90;41.60;;;;;;5079811;28;20211;-71
2022/04/15 00:10:32;;;;;;;13.73;6.77;;;17.80;41.60;;;;;;5081451;28;20520;-71
2022/04/15 00:13:00;;;;;;;10.13;6.23;;;17.80;41.10;;;;;;5086335;28;20556;-71
2022/04/15 00:15:27;;;;;;;16.97;6.80;;;17.80;40.80;;;;;;5074981;28;20775;-69
2022/04/15 00:17:54;;;;;;;11.93;7.53;;;17.70;42.10;;;;;;5082883;28;20459;-70
2022/04/15 00:20:20;;;;;;;12.77;6.53;;;17.70;41.60;;;;;;5065788;28;21015;-70
2022/04/15 00:22:46;;;;;;;10.43;6.97;;;17.70;40.50;;;;;;5089242;28;20431;-70
2022/04/15 00:25:12;;;;;;;11.73;7.03;;;17.70;40.50;;;;;;5083649;28;20431;-71
2022/04/15 00:27:40;;;;;;;12.40;6.70;;;17.70;40.30;;;;;;5081613;28;20942;-71
2022/04/15 00:30:07;;;;;;;18.70;7.40;;;17.80;39.90;;;;;;5084822;28;20447;-70
2022/04/15 00:32:33;;;;;;;12.97;7.20;;;17.80;39.60;;;;;;5091069;28;20460;-71
2022/04/15 00:34:59;;;;;;;12.43;7.47;;;17.90;39.70;;;;;;5087921;28;20426;-71
2022/04/15 00:37:24;;;;;;;13.53;7.23;;;17.90;39.50;;;;;;5082377;28;20204;-71
2022/04/15 00:39:51;;;;;;;17.50;8.03;;;17.60;40.30;;;;;;5074026;28;20469;-69
2022/04/15 00:42:17;;;;;;;10.10;7.03;;;17.40;43.50;;;;;;5086014;28;20218;-72
2022/04/15 00:44:43;;;;;;;12.37;7.20;;;17.60;41.20;;;;;;5091526;28;20454;-71
2022/04/15 00:47:34;;;;;;;13.43;7.30;;;17.70;39.50;;;;;;5089271;28;20203;-71
2022/04/15 00:49:59;;;;;;;11.97;7.50;;;17.70;40.10;;;;;;5069581;28;20226;-71
2022/04/15 00:52:30;;;;;;;12.10;6.87;;;17.50;42.30;;;;;;5090719;28;20471;-71
2022/04/15 00:54:58;;;;;;;11.83;7.33;;;17.30;43.40;;;;;;5075368;28;20186;-71
2022/04/15 00:57:26;;;;;;;22.47;7.60;;;17.30;43.20;;;;;;5084064;28;20585;-71
2022/04/15 00:59:54;;;;;;;12.00;6.33;;;17.40;43.70;;;;;;5072710;28;20426;-71
2022/04/15 01:02:21;;;;;;;24.47;7.03;;;17.20;44.30;;;;;;5090576;28;20991;-71
2022/04/15 01:04:49;;;;;;;14.67;7.43;;;17.30;43.70;;;;;;5088853;28;20778;-71
2022/04/15 01:07:18;;;;;;;11.53;7.43;;;17.20;43.10;;;;;;5084512;28;20447;-71
2022/04/15 01:09:44;;;;;;;16.27;6.93;;;17.30;42.30;;;;;;5087812;28;20880;-71
2022/04/15 01:12:11;;;;;;;15.27;7.20;;;17.30;41.30;;;;;;5075345;28;20481;-71
2022/04/15 01:14:41;;;;;;;14.90;7.17;;;17.40;41.10;;;;;;5072999;28;20458;-71
2022/04/15 01:17:07;;;;;;;12.70;7.40;;;17.40;40.90;;;;;;5090500;28;20533;-71
2022/04/15 01:19:33;;;;;;;10.97;6.93;;;17.40;41.00;;;;;;5083336;28;20920;-70
2022/04/15 01:22:08;;;;;;;11.33;7.07;;;17.40;41.50;;;;;;5080841;28;20194;-71
2022/04/15 01:24:33;;;;;;;12.77;6.47;;;17.00;43.70;;;;;;5078973;28;20179;-71
2022/04/15 01:26:59;;;;;;;12.00;7.43;;;17.00;43.50;;;;;;5072892;28;20493;-70
2022/04/15 01:29:34;;;;;;;10.10;6.60;;;16.90;43.40;;;;;;5065335;28;21020;-71
2022/04/15 01:32:03;;;;;;;14.43;7.30;;;17.00;42.40;;;;;;5083313;28;20187;-70
2022/04/15 01:34:29;;;;;;;14.03;7.43;;;17.00;42.10;;;;;;5083356;28;20469;-69
2022/04/15 01:36:55;;;;;;;15.13;7.10;;;17.10;41.90;;;;;;5080815;28;20441;-71
2022/04/15 01:39:21;;;;;;;10.37;7.10;;;17.10;41.70;;;;;;5079643;28;20257;-71
2022/04/15 01:41:47;;;;;;;14.90;7.60;;;17.00;42.70;;;;;;5083524;28;20439;-70
2022/04/15 01:44:15;;;;;;;11.03;7.43;;;16.80;43.00;;;;;;5075239;28;20823;-71
2022/04/15 01:46:42;;;;;;;13.53;7.50;;;16.50;44.80;;;;;;5085137;28;20191;-71
2022/04/15 01:49:08;;;;;;;16.37;7.53;;;16.30;45.60;;;;;;5079840;28;20432;-71
2022/04/15 01:51:35;;;;;;;14.03;7.70;;;16.50;44.10;;;;;;5063351;28;20442;-71
2022/04/15 01:54:01;;;;;;;16.80;7.93;;;16.60;43.50;;;;;;5081053;28;20456;-71
2022/04/15 01:56:26;;;;;;;18.40;8.90;;;16.50;44.10;;;;;;5072032;28;20437;-70
2022/04/15 01:58:52;;;;;;;16.97;7.67;;;16.60;43.30;;;;;;5086600;28;20588;-71
2022/04/15 02:01:17;;;;;;;11.53;7.90;;;16.50;44.10;;;;;;5080310;28;20181;-69
2022/04/15 02:03:43;;;;;;;17.57;8.20;;;16.50;43.90;;;;;;5087681;28;20217;-71
2022/04/15 02:06:09;;;;;;;14.53;8.13;;;16.30;44.90;;;;;;5088898;28;20206;-71
2022/04/15 02:08:35;;;;;;;11.33;7.63;;;16.10;46.70;;;;;;5086069;28;20239;-71
2022/04/15 02:11:00;;;;;;;18.10;8.10;;;16.30;45.60;;;;;;5093383;28;20183;-71
2022/04/15 02:13:26;;;;;;;13.60;7.57;;;16.20;45.60;;;;;;5084910;28;20194;-70
2022/04/15 02:15:52;;;;;;;14.40;7.77;;;16.30;45.10;;;;;;5078722;28;20183;-71
2022/04/15 02:18:17;;;;;;;13.73;7.83;;;16.10;45.60;;;;;;5092908;28;20198;-71
2022/04/15 02:20:43;;;;;;;10.97;7.23;;;16.20;46.30;;;;;;5093850;28;20614;-70
2022/04/15 02:23:09;;;;;;;15.10;7.53;;;16.10;46.30;;;;;;5078293;28;20624;-71
2022/04/15 02:25:34;;;;;;;17.27;7.83;;;16.10;46.40;;;;;;5089731;28;20192;-70
2022/04/15 02:28:00;;;;;;;14.33;7.10;;;16.20;45.60;;;;;;5089261;28;20266;-71
2022/04/15 02:30:25;;;;;;;16.30;7.20;;;16.10;46.70;;;;;;5085627;28;20521;-71
2022/04/15 02:32:51;;;;;;;10.90;6.77;;;15.90;47.00;;;;;;5080411;28;20203;-71
2022/04/15 02:35:17;;;;;;;12.27;7.30;;;16.00;47.10;;;;;;5091970;28;20232;-71
2022/04/15 02:37:42;;;;;;;13.87;7.00;;;15.90;47.20;;;;;;5088070;28;20199;-69
2022/04/15 02:40:09;;;;;;;14.10;7.60;;;15.90;48.00;;;;;;5085434;28;20187;-72
2022/04/15 02:42:36;;;;;;;11.90;6.23;;;16.10;46.70;;;;;;5085822;28;20197;-71
2022/04/15 02:45:03;;;;;;;11.50;7.00;;;16.20;45.90;;;;;;5078978;28;20424;-71
2022/04/15 02:47:29;;;;;;;20.10;6.93;;;16.20;44.90;;;;;;5084719;28;20845;-71
2022/04/15 02:49:55;;;;;;;14.27;7.10;;;16.30;44.60;;;;;;5093549;28;20914;-70
2022/04/15 02:52:21;;;;;;;17.63;7.07;;;16.20;44.10;;;;;;5084571;28;20423;-69
2022/04/15 02:54:47;;;;;;;14.83;7.60;;;16.30;44.00;;;;;;5085794;28;20239;-70
2022/04/15 02:57:13;;;;;;;11.43;7.10;;;16.20;46.40;;;;;;5084928;28;21038;-70
2022/04/15 02:59:39;;;;;;;9.70;6.17;;;16.20;45.30;;;;;;5089281;28;20501;-71
2022/04/15 03:02:05;;;;;;;11.67;6.93;;;16.30;44.30;;;;;;5081586;28;20422;-71
2022/04/15 03:04:30;;;;;;;19.13;7.80;;;16.30;44.70;;;;;;5082419;28;20183;-71
2022/04/15 03:06:56;;;;;;;15.13;6.20;;;16.20;45.60;;;;;;5086833;28;20456;-70
2022/04/15 03:09:22;;;;;;;12.40;6.67;;;16.20;44.00;;;;;;5081313;28;20178;-71
2022/04/15 03:11:48;;;;;;;13.03;6.50;;;16.20;43.80;;;;;;5085693;28;20268;-69
2022/04/15 03:14:16;;;;;;;13.27;7.37;;;16.30;43.00;;;;;;5092355;28;20300;-70
2022/04/15 03:16:42;;;;;;;10.00;6.40;;;16.30;43.30;;;;;;5088512;28;20456;-70
2022/04/15 03:19:08;;;;;;;14.70;6.50;;;16.10;44.50;;;;;;5085767;28;20844;-71
2022/04/15 03:21:35;;;;;;;11.73;6.70;;;16.20;44.10;;;;;;5082739;28;20186;-69
2022/04/15 03:24:02;;;;;;;14.70;8.10;;;16.10;46.00;;;;;;5092214;28;20184;-71
2022/04/15 03:26:28;;;;;;;12.03;5.73;;;16.10;44.20;;;;;;5063441;28;20453;-71
2022/04/15 03:28:54;;;;;;;9.43;6.60;;;16.20;42.90;;;;;;5092602;28;20424;-71
2022/04/15 03:31:19;;;;;;;16.50;6.90;;;16.30;43.30;;;;;;5091462;28;20431;-71
2022/04/15 03:33:45;;;;;;;16.47;7.20;;;16.10;43.70;;;;;;5091647;28;20254;-69
2022/04/15 03:36:11;;;;;;;21.13;7.10;;;16.00;45.40;;;;;;5081250;28;20234;-71
2022/04/15 03:38:38;;;;;;;8.83;6.53;;;16.00;44.10;;;;;;5088655;28;20427;-71
2022/04/15 03:41:04;;;;;;;9.93;6.23;;;16.10;43.10;;;;;;5080672;28;20431;-71
2022/04/15 03:43:30;;;;;;;13.73;7.10;;;16.10;43.10;;;;;;5081277;28;20487;-71
2022/04/15 03:45:56;;;;;;;12.80;6.60;;;16.00;43.30;;;;;;5082257;28;20355;-71
2022/04/15 03:48:22;;;;;;;21.43;6.90;;;15.90;44.20;;;;;;5080902;28;20897;-71
2022/04/15 03:50:47;;;;;;;10.83;7.10;;;15.80;44.10;;;;;;5083097;28;20422;-71
2022/04/15 03:53:13;;;;;;;12.40;7.73;;;15.90;43.90;;;;;;5085461;28;20282;-71
2022/04/15 03:55:39;;;;;;;18.40;9.40;;;15.70;44.70;;;;;;5059599;28;20185;-70
2022/04/15 03:58:04;;;;;;;16.47;8.90;;;15.70;44.40;;;;;;5081469;28;20211;-71
2022/04/15 04:00:30;;;;;;;13.87;9.30;;;15.90;43.50;;;;;;5080546;28;20184;-71
2022/04/15 04:02:55;;;;;;;18.90;8.60;;;15.80;44.10;;;;;;5083332;28;20636;-71
2022/04/15 04:05:23;;;;;;;14.80;7.83;;;15.60;44.70;;;;;;5091310;28;20287;-70
2022/04/15 04:07:49;;;;;;;16.03;9.80;;;15.30;47.00;;;;;;5074330;28;20292;-71
2022/04/15 04:10:15;;;;;;;13.10;8.33;;;15.20;47.60;;;;;;5068297;28;20441;-71
2022/04/15 04:12:42;;;;;;;18.40;9.60;;;15.30;46.80;;;;;;5073526;28;20576;-71
2022/04/15 04:15:09;;;;;;;19.00;9.67;;;15.40;46.00;;;;;;5076864;28;20511;-70
2022/04/15 04:17:35;;;;;;;15.20;9.03;;;15.20;47.00;;;;;;5083730;28;20471;-69
2022/04/15 04:20:02;;;;;;;15.80;9.50;;;15.00;47.90;;;;;;5083316;28;20430;-70
2022/04/15 04:22:32;;;;;;;20.73;9.73;;;15.10;47.10;;;;;;5083653;28;20431;-70
2022/04/15 04:24:58;;;;;;;14.30;8.80;;;15.20;47.20;;;;;;5082635;28;20908;-70
2022/04/15 04:27:24;;;;;;;21.60;11.10;;;15.10;46.70;;;;;;5084171;28;20447;-71
2022/04/15 04:29:50;;;;;;;14.00;8.80;;;14.90;47.70;;;;;;5085514;28;20180;-74
2022/04/15 04:32:17;;;;;;;15.43;8.87;;;14.70;48.40;;;;;;5085303;28;20665;-70
2022/04/15 04:34:42;;;;;;;13.83;8.47;;;14.70;48.90;;;;;;5085809;28;20425;-70
2022/04/15 04:37:08;;;;;;;15.30;7.50;;;14.80;48.10;;;;;;5091378;28;20445;-71
2022/04/15 04:39:33;;;;;;;14.20;8.53;;;14.80;49.00;;;;;;5089991;28;20197;-68
2022/04/15 04:42:00;;;;;;;14.53;7.93;;;14.90;48.40;;;;;;5082120;28;20558;-71
2022/04/15 04:44:27;;;;;;;18.83;8.50;;;15.10;46.90;;;;;;5083077;28;20197;-70
2022/04/15 04:46:54;;;;;;;14.43;8.30;;;15.00;47.30;;;;;;5081271;28;20470;-70
2022/04/15 04:49:20;;;;;;;14.27;8.77;;;15.10;47.10;;;;;;5080546;28;20903;-71
2022/04/15 04:51:45;;;;;;;14.50;8.23;;;15.00;48.20;;;;;;5071709;28;20431;-70
2022/04/15 04:54:11;;;;;;;17.33;8.60;;;15.20;46.20;;;;;;5078770;28;20532;-71
2022/04/15 04:56:37;;;;;;;12.97;8.80;;;12.80;45.00;;;;;;5071472;28;20197;-70
2022/04/15 04:59:03;;;;;;;13.70;8.07;;;15.00;48.60;;;;;;5079454;28;20474;-70
2022/04/15 05:01:28;;;;;;;13.93;7.93;;;15.10;47.30;;;;;;5076923;28;20261;-70
2022/04/15 05:03:54;;;;;;;11.80;7.40;;;15.30;46.10;;;;;;5090374;28;20554;-71
2022/04/15 05:06:19;;;;;;;13.57;8.50;;;15.40;45.40;;;;;;5074110;28;20984;-71
2022/04/15 05:08:45;;;;;;;13.83;8.57;;;15.30;45.90;;;;;;5083635;28;20270;-69
2022/04/15 05:11:11;;;;;;;18.23;8.50;;;15.40;45.70;;;;;;5087252;28;20588;-71
2022/04/15 05:13:36;;;;;;;20.70;8.73;;;15.60;45.00;;;;;;5076497;28;20204;-69
2022/04/15 05:16:02;;;;;;;11.87;8.23;;;15.60;45.80;;;;;;5073119;28;20180;-71
2022/04/15 05:18:28;;;;;;;13.10;7.77;;;15.40;46.40;;;;;;5090611;28;20182;-71
2022/04/15 05:20:53;;;;;;;15.93;7.60;;;15.30;47.30;;;;;;5081824;28;20179;-71
2022/04/15 05:23:19;;;;;;;16.40;8.40;;;15.20;48.00;;;;;;5090938;28;20180;-71
2022/04/15 05:25:45;;;;;;;18.10;8.90;;;15.40;47.30;;;;;;5087412;28;20176;-69
2022/04/15 05:28:11;;;;;;;14.37;8.37;;;15.50;48.10;;;;;;5090463;28;20869;-70
2022/04/15 05:30:37;;;;;;;13.90;8.67;;;15.40;48.20;;;;;;5083016;28;20262;-70
2022/04/15 05:33:03;;;;;;;17.07;8.27;;;15.50;47.40;;;;;;5089499;28;20717;-71
2022/04/15 05:35:28;;;;;;;23.83;9.50;;;15.70;46.70;;;;;;5085746;28;20178;-71
2022/04/15 05:37:54;;;;;;;13.60;8.57;;;15.60;48.20;;;;;;5092848;28;20194;-70
2022/04/15 05:40:20;;;;;;;14.93;9.43;;;15.70;46.20;;;;;;5082630;28;20996;-71
2022/04/15 05:42:46;;;;;;;21.90;9.53;;;15.70;45.80;;;;;;5090284;28;20178;-71
2022/04/15 05:45:11;;;;;;;16.23;8.70;;;15.60;47.40;;;;;;5077747;28;20428;-71
2022/04/15 05:47:39;;;;;;;17.07;11.50;;;15.80;47.00;;;;;;5089248;28;20574;-71
2022/04/15 05:50:06;;;;;;;20.37;11.63;;;15.80;46.00;;;;;;5093265;28;20728;-71
2022/04/15 05:52:32;;;;;;;18.30;12.00;;;15.90;46.60;;;;;;5086969;28;20460;-70
2022/04/15 05:54:58;;;;;;;15.90;10.77;;;16.10;47.80;;;;;;5085702;28;20418;-71
2022/04/15 05:57:23;;;;;;;13.77;9.67;;;16.10;46.20;;;;;;5085252;28;20516;-70
2022/04/15 05:59:49;;;;;;;12.90;9.77;;;16.20;45.90;;;;;;5079266;28;20177;-71
2022/04/15 06:02:15;;;;;;;15.07;10.10;;;16.20;46.60;;;;;;5083872;28;20185;-71
2022/04/15 06:04:40;;;;;;;19.70;9.87;;;16.30;45.60;;;;;;5088634;28;20226;-71
2022/04/15 06:07:06;;;;;;;15.77;10.50;;;16.30;45.00;;;;;;5086042;28;20198;-70
2022/04/15 06:09:32;;;;;;;19.00;10.30;;;16.50;45.50;;;;;;5094311;28;20229;-69
2022/04/15 06:11:57;;;;;;;21.63;10.90;;;16.60;45.20;;;;;;5067318;28;20182;-71
2022/04/15 06:14:23;;;;;;;18.40;11.50;;;16.60;45.00;;;;;;5088328;28;20215;-71
2022/04/15 06:16:49;;;;;;;26.20;11.67;;;16.50;44.80;;;;;;5085494;28;20214;-71
2022/04/15 06:19:15;;;;;;;24.83;12.70;;;16.60;45.40;;;;;;5077643;28;20216;-71
2022/04/15 06:21:41;;;;;;;21.03;12.10;;;16.80;43.70;;;;;;5080728;28;20428;-71
2022/04/15 06:24:10;;;;;;;18.53;11.00;;;16.90;42.90;;;;;;5082211;28;21223;-70
2022/04/15 06:26:36;;;;;;;28.67;11.60;;;16.90;43.60;;;;;;5081513;28;20207;-71
2022/04/15 06:29:02;;;;;;;16.93;10.23;;;17.10;42.30;;;;;;5074088;28;20539;-71
2022/04/15 06:31:27;;;;;;;17.10;10.00;;;17.10;41.70;;;;;;5083967;28;20476;-71
2022/04/15 06:33:53;;;;;;;15.97;10.27;;;17.20;41.80;;;;;;5088694;28;20294;-71
2022/04/15 06:36:19;;;;;;;21.73;10.97;;;17.30;41.30;;;;;;5074772;28;20197;-70
2022/04/15 06:38:46;;;;;;;17.93;10.50;;;17.60;40.20;;;;;;5081877;28;20179;-69
2022/04/15 06:41:11;;;;;;;19.47;11.00;;;17.90;38.70;;;;;;5081706;28;20424;-71
2022/04/15 06:43:37;;;;;;;18.87;11.30;;;17.70;39.50;;;;;;5077038;28;20439;-71
2022/04/15 06:46:03;;;;;;;20.73;11.73;;;17.50;40.50;;;;;;5083221;28;20197;-70
2022/04/15 06:48:29;;;;;;;18.10;11.33;;;17.00;41.40;;;;;;5083245;28;20184;-71
2022/04/15 06:50:55;;;;;;;21.47;11.70;;;16.50;45.80;;;;;;5082169;28;20175;-70
2022/04/15 06:53:24;;;;;;;24.20;11.60;;;16.90;45.40;;;;;;5077055;28;20527;-70
2022/04/15 06:55:53;;;;;;;19.50;12.80;;;17.30;43.20;;;;;;5082530;28;20172;-70
2022/04/15 06:58:19;;;;;;;16.90;11.53;;;16.80;43.90;;;;;;5088982;28;20461;-71
2022/04/15 07:00:46;;;;;;;24.70;12.00;;;16.90;43.90;;;;;;5088130;28;20421;-71
2022/04/15 07:03:12;;;;;;;20.87;12.13;;;16.90;44.80;;;;;;5078221;28;20437;-71
2022/04/15 07:05:42;;;;;;;27.57;12.33;;;17.40;43.40;;;;;;5076588;28;20426;-71
2022/04/15 07:08:11;;;;;;;19.53;11.50;;;18.10;39.90;;;;;;5067245;28;20445;-70
2022/04/15 07:10:40;;;;;;;16.70;11.30;;;17.70;41.20;;;;;;5081459;28;20422;-70
2022/04/15 07:13:06;;;;;;;18.83;11.57;;;17.30;42.50;;;;;;5076445;28;21062;-70
2022/04/15 07:15:32;;;;;;;18.90;12.50;;;17.40;42.80;;;;;;5067646;28;20471;-71
2022/04/15 07:17:59;;;;;;;18.87;11.57;;;17.90;40.90;;;;;;5079372;28;20484;-69
2022/04/15 07:20:25;;;;;;;14.30;11.30;;;17.70;40.60;;;;;;5093106;28;20421;-71
2022/04/15 07:22:56;;;;;;;20.90;11.53;;;17.60;41.60;;;;;;5084058;28;20800;-71
2022/04/15 07:25:22;;;;;;;19.23;12.13;;;17.00;44.50;;;;;;5091912;28;20246;-70
2022/04/15 07:27:47;;;;;;;18.07;11.30;;;17.20;43.80;;;;;;5091441;28;20475;-70
2022/04/15 07:30:13;;;;;;;45.47;11.27;;;17.30;43.10;;;;;;5088204;28;20177;-71
2022/04/15 07:32:38;;;;;;;19.87;10.97;;;16.90;45.20;;;;;;5080651;28;20214;-70
2022/04/15 07:35:05;;;;;;;16.00;10.50;;;16.90;46.20;;;;;;5081278;28;20215;-70
2022/04/15 07:37:30;;;;;;;13.80;9.73;;;16.80;45.70;;;;;;5072787;28;20550;-71
2022/04/15 07:39:56;;;;;;;18.40;10.37;;;17.40;44.00;;;;;;5081982;28;20484;-69
2022/04/15 07:42:21;;;;;;;13.27;9.63;;;17.70;42.40;;;;;;5092178;28;20185;-71
2022/04/15 07:44:47;;;;;;;15.97;10.30;;;17.50;42.60;;;;;;5087599;28;20203;-71
2022/04/15 07:47:13;;;;;;;21.73;11.63;;;17.50;41.80;;;;;;5092660;28;20251;-72
2022/04/15 07:49:39;;;;;;;16.67;10.77;;;17.30;43.30;;;;;;5093018;28;20173;-71
2022/04/15 07:52:05;;;;;;;14.90;9.90;;;17.10;42.50;;;;;;5089609;28;20434;-70
2022/04/15 07:54:31;;;;;;;19.07;10.50;;;17.30;39.60;;;;;;5074312;28;20632;-71
2022/04/15 07:56:57;;;;;;;18.30;12.07;;;17.80;38.40;;;;;;5092641;28;20440;-71
2022/04/15 07:59:23;;;;;;;22.43;12.70;;;18.50;36.70;;;;;;5092543;28;20178;-71
2022/04/15 08:01:48;;;;;;;19.77;13.13;;;19.30;33.40;;;;;;5084247;28;20183;-71
2022/04/15 08:04:14;;;;;;;19.27;13.20;;;20.00;32.40;;;;;;5072025;28;20183;-73
2022/04/15 08:06:40;;;;;;;20.43;14.13;;;19.40;33.80;;;;;;5054344;28;20745;-75
2022/04/15 08:09:05;;;;;;;61.07;14.30;;;19.20;35.80;;;;;;5072452;28;20218;-76
2022/04/15 08:11:31;;;;;;;24.73;15.27;;;19.60;35.10;;;;;;5072805;28;20179;-76
2022/04/15 08:13:57;;;;;;;19.87;14.10;;;20.00;32.60;;;;;;5091222;28;20623;-76
2022/04/15 08:16:24;;;;;;;22.40;14.37;;;20.10;34.50;;;;;;5089471;28;20875;-76
2022/04/15 08:18:50;;;;;;;21.07;13.40;;;20.40;30.90;;;;;;5088981;28;20262;-76
2022/04/15 08:21:16;;;;;;;20.60;14.60;;;20.30;31.60;;;;;;5089888;28;20525;-75
2022/04/15 08:23:43;;;;;;;26.07;15.33;;;20.80;29.60;;;;;;5088283;28;20659;-75
2022/04/15 08:26:10;;;;;;;24.80;14.43;;;19.40;32.50;;;;;;5067465;28;20475;-76
2022/04/15 08:28:36;;;;;;;21.30;14.47;;;19.20;33.40;;;;;;5091382;28;20843;-77
2022/04/15 08:31:01;;;;;;;25.00;15.17;;;20.20;32.60;;;;;;5076052;28;20514;-76
2022/04/15 08:33:27;;;;;;;27.43;15.20;;;20.30;30.70;;;;;;5091705;28;20210;-75
2022/04/15 08:35:53;;;;;;;23.50;14.70;;;21.00;29.40;;;;;;5091934;28;20174;-74
2022/04/15 08:38:19;;;;;;;25.30;14.37;;;21.30;29.00;;;;;;5087385;28;20787;-75
2022/04/15 08:40:48;;;;;;;22.03;14.27;;;21.30;28.40;;;;;;5060792;28;20180;-75
2022/04/15 08:43:13;;;;;;;23.40;15.07;;;21.20;28.90;;;;;;5083897;28;20180;-74
2022/04/15 08:45:44;;;;;;;23.37;14.97;;;19.50;31.70;;;;;;5091711;28;20483;-75
2022/04/15 08:48:10;;;;;;;21.37;15.20;;;19.70;31.20;;;;;;5087472;28;20192;-71
2022/04/15 08:50:35;;;;;;;20.97;14.07;;;19.50;32.20;;;;;;5072002;28;20439;-75
2022/04/15 08:53:03;;;;;;;17.37;13.70;;;20.00;31.80;;;;;;5071332;28;20565;-75
2022/04/15 08:55:30;;;;;;;24.37;14.97;;;20.70;32.10;;;;;;5071885;28;20168;-75
2022/04/15 08:57:57;;;;;;;28.20;16.00;;;20.90;29.90;;;;;;5091439;28;20910;-75
2022/04/15 09:00:24;;;;;;;26.63;14.70;;;20.30;30.20;;;;;;5091630;28;20918;-74
2022/04/15 09:02:50;;;;;;;25.47;16.10;;;20.60;29.40;;;;;;5091475;28;20411;-74
2022/04/15 09:05:21;;;;;;;21.80;14.90;;;20.40;30.00;;;;;;5091383;28;20432;-73
2022/04/15 09:07:47;;;;;;;29.90;16.13;;;20.30;29.50;;;;;;5087335;28;20441;-75
2022/04/15 09:10:16;;;;;;;18.77;13.30;;;19.90;29.90;;;;;;5095301;28;20988;-76
2022/04/15 09:12:42;;;;;;;16.87;12.57;;;19.30;31.80;;;;;;5097725;28;20227;-74
2022/04/15 09:15:08;;;;;;;15.30;11.23;;;18.90;30.50;;;;;;5096565;28;20403;-75
2022/04/15 09:17:42;;;;;;;17.80;13.03;;;19.30;30.20;;;;;;5082583;28;20454;-74
2022/04/15 09:20:11;;;;;;;21.10;12.77;;;19.20;30.20;;;;;;5089291;28;20173;-76
2022/04/15 09:22:37;;;;;;;19.87;13.63;;;19.20;30.90;;;;;;5089118;28;20481;-75
2022/04/15 09:25:04;;;;;;;21.90;13.93;;;19.70;30.20;;;;;;5089987;28;20782;-74
2022/04/15 09:27:30;;;;;;;18.27;13.33;;;20.40;29.40;;;;;;5094864;28;20952;-74
2022/04/15 09:29:55;;;;;;;22.50;14.97;;;20.30;28.50;;;;;;5097760;28;20416;-75
2022/04/15 09:32:23;;;;;;;17.70;12.20;;;20.90;27.80;;;;;;5095070;28;20186;-75
2022/04/15 09:34:58;;;;;;;17.90;12.77;;;21.50;28.40;;;;;;5088262;28;20200;-75
2022/04/15 09:37:30;;;;;;;21.40;13.10;;;22.10;29.20;;;;;;5097110;28;20435;-74
2022/04/15 09:40:15;;;;;;;19.67;12.87;;;22.60;26.50;;;;;;5095936;28;20454;-74
2022/04/15 09:42:50;;;;;;;17.47;12.50;;;23.00;25.70;;;;;;5095556;28;20406;-76
2022/04/15 09:45:24;;;;;;;16.63;10.97;;;22.10;26.00;;;;;;5079125;28;20972;-75
2022/04/15 09:48:07;;;;;;;19.90;12.87;;;21.20;27.40;;;;;;5079237;28;20443;-75
2022/04/15 09:50:36;;;;;;;19.03;12.50;;;20.20;28.90;;;;;;5093564;28;20412;-75
2022/04/15 09:53:13;;;;;;;17.00;12.23;;;19.50;29.30;;;;;;5090193;28;20466;-74
2022/04/15 09:55:40;;;;;;;18.83;12.20;;;19.90;29.60;;;;;;5090080;28;20419;-75
2022/04/15 09:58:11;;;;;;;15.50;11.67;;;20.60;28.00;;;;;;5097681;28;20766;-75
2022/04/15 10:00:39;;;;;;;17.23;11.63;;;20.10;29.30;;;;;;5079426;28;20552;-75
2022/04/15 10:03:14;;;;;;;18.20;11.97;;;20.10;29.10;;;;;;5093230;28;20432;-74
2022/04/15 10:05:42;;;;;;;18.80;13.73;;;20.30;28.80;;;;;;5088585;28;20422;-74
2022/04/15 10:08:09;;;;;;;22.80;13.67;;;20.40;28.50;;;;;;5095397;28;20927;-74
2022/04/15 10:10:36;;;;;;;20.20;13.07;;;20.90;27.50;;;;;;5090301;28;20521;-75
2022/04/15 10:13:06;;;;;;;19.40;12.07;;;21.90;27.30;;;;;;5087568;28;20843;-74
2022/04/15 10:15:33;;;;;;;18.73;10.90;;;21.60;25.90;;;;;;5095250;28;20409;-73
2022/04/15 10:18:00;;;;;;;13.67;10.83;;;22.00;26.90;;;;;;5082693;28;20535;-74
2022/04/15 10:20:31;;;;;;;16.60;10.23;;;23.20;24.40;;;;;;5078355;28;20435;-73
2022/04/15 10:23:04;;;;;;;16.50;11.37;;;23.90;23.90;;;;;;5074310;28;20443;-74
2022/04/15 10:25:31;;;;;;;16.10;12.30;;;23.40;24.30;;;;;;5068416;28;20810;-76
2022/04/15 10:28:17;;;;;;;13.33;10.77;;;21.90;25.60;;;;;;5087915;28;20842;-74
2022/04/15 10:31:11;;;;;;;16.63;11.07;;;21.50;25.50;;;;;;5094013;28;20431;-74
2022/04/15 10:33:39;;;;;;;15.87;10.20;;;21.00;25.80;;;;;;5086208;28;21042;-74
2022/04/15 10:36:22;;;;;;;16.83;10.67;;;21.50;27.00;;;;;;5083568;28;20485;-73
2022/04/15 10:39:03;;;;;;;14.73;9.73;;;21.20;26.80;;;;;;5089513;28;20419;-74
2022/04/15 10:41:51;;;;;;;17.20;10.30;;;21.40;26.90;;;;;;5093648;28;20452;-74
2022/04/15 10:44:25;;;;;;;16.80;11.57;;;21.40;25.70;;;;;;5065112;28;20433;-75
2022/04/15 10:46:51;;;;;;;17.50;11.07;;;21.10;25.50;;;;;;5076668;28;20971;-75
2022/04/15 10:49:23;;;;;;;19.17;11.97;;;21.70;25.60;;;;;;5086552;28;20413;-76
2022/04/15 10:51:54;;;;;;;18.10;11.23;;;21.30;24.80;;;;;;5086638;28;20178;-76
2022/04/15 10:54:35;;;;;;;17.07;12.10;;;21.30;25.00;;;;;;5067682;28;20478;-76
2022/04/15 10:57:24;;;;;;;26.43;12.37;;;21.00;26.00;;;;;;5084031;28;20523;-76
2022/04/15 11:02:45;;;;;;;18.47;11.70;;;21.30;25.50;;;;;;5073042;28;20545;-75
2022/04/15 11:05:31;;;;;;;17.90;13.77;;;22.00;27.40;;;;;;5057065;28;20791;-75
2022/04/15 11:08:06;;;;;;;17.37;12.73;;;21.50;24.70;;;;;;5091932;28;20473;-75
2022/04/15 11:10:44;;;;;;;22.90;13.03;;;22.30;26.60;;;;;;5082005;28;20499;-76
2022/04/15 11:13:25;;;;;;;17.87;11.83;;;22.60;23.40;;;;;;5073039;28;20463;-75
2022/04/15 11:15:59;;;;;;;17.10;10.47;;;22.60;21.90;;;;;;5072893;28;20397;-75
2022/04/15 11:18:53;;;;;;;13.37;10.37;;;22.80;22.50;;;;;;5086342;28;20418;-75
2022/04/15 11:21:21;;;;;;;15.47;11.00;;;22.20;23.70;;;;;;5092389;28;20432;-75
2022/04/15 11:23:52;;;;;;;16.70;11.03;;;21.60;24.90;;;;;;5083820;28;20421;-75
2022/04/15 11:26:19;;;;;;;17.77;12.33;;;21.30;25.20;;;;;;5081860;28;20432;-74
2022/04/15 11:28:47;;;;;;;18.67;12.27;;;21.20;24.30;;;;;;5076084;28;20504;-74
2022/04/15 11:31:25;;;;;;;19.03;12.20;;;20.70;25.30;;;;;;5074009;28;20443;-75
2022/04/15 11:33:52;;;;;;;16.57;12.40;;;20.50;25.20;;;;;;5070282;28;20877;-76
2022/04/15 11:36:20;;;;;;;19.10;13.03;;;20.50;25.50;;;;;;5085350;28;20443;-75
2022/04/15 11:38:49;;;;;;;18.80;12.40;;;21.00;24.90;;;;;;5092572;28;20419;-74
2022/04/15 11:41:21;;;;;;;17.77;12.03;;;21.60;23.90;;;;;;5084658;28;20850;-75
2022/04/15 11:43:59;;;;;;;18.53;12.30;;;22.40;24.10;;;;;;5092532;28;20418;-75
2022/04/15 11:46:48;;;;;;;21.10;12.63;;;22.40;22.80;;;;;;5077359;28;20455;-75
2022/04/15 11:49:30;;;;;;;17.00;12.77;;;22.40;24.00;;;;;;5072774;28;20472;-75
2022/04/15 11:52:00;;;;;;;19.13;12.40;;;24.40;22.40;;;;;;5073452;28;20820;-75
2022/04/15 11:54:38;;;;;;;21.00;12.67;;;25.50;20.40;;;;;;5077338;28;20452;-75
2022/04/15 11:57:05;;;;;;;13.70;11.00;;;26.00;20.50;;;;;;5088643;28;20440;-75
2022/04/15 11:59:42;;;;;;;18.00;10.47;;;26.40;18.60;;;;;;5083543;28;20443;-75
2022/04/15 12:02:09;;;;;;;15.17;9.80;;;25.50;17.90;;;;;;5079412;28;20472;-75
2022/04/15 12:04:35;;;;;;;17.53;9.53;;;26.00;18.70;;;;;;5086158;28;20416;-75
2022/04/15 12:07:01;;;;;;;14.60;9.90;;;26.20;17.90;;;;;;5082680;28;20452;-75
2022/04/15 12:09:27;;;;;;;11.10;8.77;;;26.40;19.20;;;;;;5092597;28;20171;-75
2022/04/15 12:11:53;;;;;;;14.60;9.47;;;26.70;16.00;;;;;;5092186;28;20465;-75
2022/04/15 12:14:19;;;;;;;16.03;10.87;;;26.20;16.50;;;;;;5091060;28;20198;-75
2022/04/15 12:16:47;;;;;;;10.93;8.03;;;26.20;18.60;;;;;;5072243;28;20571;-76
2022/04/15 12:19:13;;;;;;;11.33;9.20;;;25.00;18.60;;;;;;5092469;28;20923;-75
2022/04/15 12:21:40;;;;;;;14.60;8.20;;;24.50;18.80;;;;;;5091503;28;20424;-74
2022/04/15 12:24:09;;;;;;;11.40;8.90;;;24.70;20.00;;;;;;5091742;28;20419;-75
2022/04/15 12:26:47;;;;;;;13.43;8.90;;;24.80;18.70;;;;;;5092127;28;20773;-76
2022/04/15 12:32:19;;;;;;;12.63;7.60;;;25.00;19.70;;;;;;5078200;28;20450;-76
2022/04/15 12:34:46;;;;;;;9.50;7.57;;;25.60;18.70;;;;;;5071638;28;20456;-74
2022/04/15 12:37:30;;;;;;;11.23;7.50;;;25.60;18.30;;;;;;5072619;28;20898;-76
2022/04/15 12:39:56;;;;;;;12.47;8.33;;;26.60;17.40;;;;;;5089182;28;20420;-77
2022/04/15 12:42:29;;;;;;;12.70;8.70;;;26.70;16.80;;;;;;5078489;28;20417;-76